Time;durP1;ratioP1;P1;durP2;ratioP2;P2;SDS_P1;SDS_P2;PMS_P1;PMS_P2;Temp;Humidity;BMP_temperature;BMP_pressure;BME280_temperature;BME280_humidity;BME280_pressure;Samples;Min_cycle;Max_cycle;Signal;HPM_P1;HPM_P2
2021/12/19 00:02:03;;;;;;;15.40;8.00;;;5.50;99.90;;;;;;5040630;28;20702;-74
2021/12/19 00:11:04;;;;;;;10.43;6.72;;;5.30;99.90;;;;;;5010394;28;20202;-75
2021/12/19 00:13:51;;;;;;;10.55;6.60;;;5.40;99.90;;;;;;5032446;28;20683;-74
2021/12/19 00:16:37;;;;;;;11.50;7.22;;;5.40;99.90;;;;;;5026303;28;20209;-73
2021/12/19 00:19:23;;;;;;;12.20;7.50;;;5.40;99.90;;;;;;5035102;28;20302;-74
2021/12/19 00:22:10;;;;;;;11.90;7.90;;;5.40;99.90;;;;;;5027799;28;20212;-74
2021/12/19 00:24:56;;;;;;;12.63;7.05;;;5.50;99.90;;;;;;5033586;28;20576;-75
2021/12/19 00:27:41;;;;;;;15.57;7.90;;;5.50;99.90;;;;;;5033289;28;20225;-74
2021/12/19 00:30:28;;;;;;;18.38;8.85;;;5.60;99.90;;;;;;5029543;28;20650;-75
2021/12/19 00:33:14;;;;;;;16.45;8.93;;;5.60;99.90;;;;;;5034432;28;20295;-75
2021/12/19 00:36:00;;;;;;;16.90;9.10;;;5.60;99.90;;;;;;5027415;28;20205;-75
2021/12/19 00:38:47;;;;;;;16.70;8.85;;;5.70;99.90;;;;;;5032901;28;20233;-75
2021/12/19 00:41:32;;;;;;;12.52;7.53;;;5.70;99.90;;;;;;5037716;28;20212;-75
2021/12/19 00:44:22;;;;;;;13.30;8.40;;;5.60;99.90;;;;;;5024958;28;20264;-74
2021/12/19 00:47:09;;;;;;;16.20;9.80;;;5.60;99.90;;;;;;5010338;28;20207;-74
2021/12/19 00:49:55;;;;;;;15.23;9.23;;;5.70;99.90;;;;;;5040207;28;20599;-74
2021/12/19 00:52:41;;;;;;;16.30;10.02;;;5.70;99.90;;;;;;5030536;28;20224;-74
2021/12/19 00:55:28;;;;;;;17.83;9.48;;;5.60;99.90;;;;;;5029964;28;20210;-74
2021/12/19 00:58:14;;;;;;;17.80;10.55;;;5.60;99.90;;;;;;5023369;28;20679;-73
2021/12/19 01:01:00;;;;;;;14.85;8.63;;;5.60;99.90;;;;;;5017326;28;20217;-74
2021/12/19 01:03:48;;;;;;;17.35;10.32;;;5.50;99.90;;;;;;5031759;28;20316;-73
2021/12/19 01:06:33;;;;;;;14.65;9.95;;;5.50;99.90;;;;;;5031217;28;20590;-74
2021/12/19 01:09:19;;;;;;;16.80;10.20;;;5.50;99.90;;;;;;5031123;28;20667;-73
2021/12/19 01:12:09;;;;;;;16.52;9.30;;;5.60;99.90;;;;;;5024463;28;20216;-74
2021/12/19 01:14:55;;;;;;;31.40;10.75;;;5.60;99.90;;;;;;5037561;28;21100;-75
2021/12/19 01:17:41;;;;;;;17.00;10.38;;;5.70;99.90;;;;;;5034194;28;20212;-74
2021/12/19 01:20:31;;;;;;;17.15;9.85;;;5.60;99.90;;;;;;5031452;28;20588;-73
2021/12/19 01:23:17;;;;;;;16.60;9.13;;;5.70;99.90;;;;;;5031513;28;20222;-74
2021/12/19 01:26:03;;;;;;;17.20;10.13;;;5.70;99.90;;;;;;5036803;28;20209;-74
2021/12/19 01:28:49;;;;;;;19.38;9.25;;;5.70;99.90;;;;;;5036002;28;20352;-74
2021/12/19 01:31:34;;;;;;;14.02;9.23;;;5.70;99.90;;;;;;5040269;28;20213;-73
2021/12/19 01:34:19;;;;;;;19.98;11.15;;;5.70;99.90;;;;;;5032960;28;20271;-75
2021/12/19 01:37:07;;;;;;;18.05;11.07;;;5.80;99.90;;;;;;5026288;28;20691;-75
2021/12/19 01:39:52;;;;;;;17.25;9.10;;;5.80;99.90;;;;;;5039532;28;20275;-75
2021/12/19 01:42:41;;;;;;;17.80;10.52;;;5.80;99.90;;;;;;5035161;28;20201;-74
2021/12/19 01:45:29;;;;;;;15.27;9.00;;;5.80;99.90;;;;;;5035073;28;20206;-74
2021/12/19 01:48:15;;;;;;;15.05;9.90;;;5.80;99.90;;;;;;5027685;28;20491;-75
2021/12/19 01:51:01;;;;;;;15.93;10.40;;;5.80;99.90;;;;;;5023139;28;20276;-74
2021/12/19 01:53:48;;;;;;;18.25;10.93;;;5.80;99.90;;;;;;5039378;28;20573;-75
2021/12/19 01:56:34;;;;;;;17.90;10.85;;;5.90;99.90;;;;;;5035389;28;20684;-75
2021/12/19 02:01:57;;;;;;;17.33;11.45;;;5.80;99.90;;;;;;5014392;28;20683;-77
2021/12/19 02:04:43;;;;;;;17.65;10.30;;;5.80;99.90;;;;;;5030862;28;20225;-77
2021/12/19 02:07:29;;;;;;;24.58;10.65;;;5.80;99.90;;;;;;5026732;28;20580;-77
2021/12/19 02:10:18;;;;;;;17.75;10.93;;;5.80;99.90;;;;;;5030722;28;20265;-77
2021/12/19 02:13:06;;;;;;;18.73;10.82;;;5.80;99.90;;;;;;5008156;28;20277;-77
2021/12/19 02:15:52;;;;;;;18.90;10.80;;;5.80;99.90;;;;;;5020772;28;20832;-77
2021/12/19 02:18:38;;;;;;;21.85;12.38;;;5.70;99.90;;;;;;5010559;28;20506;-77
2021/12/19 02:21:25;;;;;;;18.10;10.75;;;5.80;99.90;;;;;;5018787;28;20284;-77
2021/12/19 02:24:12;;;;;;;19.15;11.07;;;5.70;99.90;;;;;;5015761;28;20312;-77
2021/12/19 02:26:57;;;;;;;17.80;11.98;;;5.70;99.90;;;;;;5018825;28;20206;-76
2021/12/19 02:29:43;;;;;;;17.50;11.38;;;5.70;99.90;;;;;;5028242;28;20225;-77
2021/12/19 02:32:30;;;;;;;15.65;10.13;;;5.70;99.90;;;;;;5009638;28;20206;-77
2021/12/19 02:35:21;;;;;;;19.85;11.18;;;5.70;99.90;;;;;;5012887;28;20249;-76
2021/12/19 02:38:31;;;;;;;17.85;11.05;;;5.80;99.90;;;;;;5019246;28;20572;-78
2021/12/19 02:50:30;;;;;;;21.73;11.50;;;5.90;99.90;;;;;;5026606;28;20217;-77
2021/12/19 02:53:22;;;;;;;14.43;9.68;;;5.90;99.90;;;;;;5014781;28;20452;-77
2021/12/19 02:56:10;;;;;;;16.80;11.15;;;5.90;99.90;;;;;;5007449;28;20567;-76
2021/12/19 02:58:55;;;;;;;17.55;11.27;;;5.90;99.90;;;;;;5019841;28;20225;-77
2021/12/19 03:01:44;;;;;;;18.17;11.02;;;5.90;99.90;;;;;;5009045;28;20239;-77
2021/12/19 03:04:30;;;;;;;20.33;12.57;;;5.90;99.90;;;;;;5017056;28;20226;-77
2021/12/19 03:07:15;;;;;;;21.48;11.52;;;5.90;99.90;;;;;;5006143;28;20687;-77
2021/12/19 03:10:22;;;;;;;19.58;13.02;;;5.90;99.90;;;;;;5015942;28;20229;-77
2021/12/19 03:13:20;;;;;;;23.42;11.73;;;5.80;99.90;;;;;;5013689;28;20201;-76
2021/12/19 03:19:10;;;;;;;20.75;11.05;;;5.70;99.90;;;;;;5009322;28;20198;-77
2021/12/19 03:21:55;;;;;;;21.73;13.00;;;5.60;99.90;;;;;;5017380;28;20201;-77
2021/12/19 03:24:41;;;;;;;21.10;12.80;;;5.60;99.90;;;;;;5020565;28;20263;-77
2021/12/19 03:27:28;;;;;;;17.70;11.35;;;5.60;99.90;;;;;;5021390;28;20206;-77
2021/12/19 03:30:15;;;;;;;21.67;12.98;;;5.50;99.90;;;;;;5017502;28;20588;-77
2021/12/19 03:33:01;;;;;;;18.67;12.70;;;5.50;99.90;;;;;;5013378;28;20563;-77
2021/12/19 03:35:47;;;;;;;20.90;13.02;;;5.60;99.90;;;;;;5021612;28;20272;-79
2021/12/19 03:38:37;;;;;;;17.85;10.52;;;5.70;99.90;;;;;;5009717;28;20202;-77
2021/12/19 03:41:26;;;;;;;20.80;11.90;;;5.60;99.90;;;;;;5008025;28;20222;-76
2021/12/19 03:44:13;;;;;;;19.75;12.80;;;5.60;99.90;;;;;;5016095;28;20230;-77
2021/12/19 03:46:59;;;;;;;21.02;12.13;;;5.60;99.90;;;;;;5020064;28;20663;-77
2021/12/19 03:49:46;;;;;;;19.30;11.60;;;5.60;99.90;;;;;;5014111;28;20353;-77
2021/12/19 03:52:32;;;;;;;20.90;12.60;;;5.70;99.90;;;;;;5017885;28;20280;-76
2021/12/19 03:55:18;;;;;;;21.83;12.77;;;5.60;99.90;;;;;;5006306;28;20198;-77
2021/12/19 03:58:04;;;;;;;21.20;12.25;;;5.60;99.90;;;;;;5021552;28;20205;-77
2021/12/19 04:00:52;;;;;;;21.05;12.48;;;5.60;99.90;;;;;;5017437;28;20292;-77
2021/12/19 04:03:38;;;;;;;21.38;12.18;;;5.70;99.90;;;;;;5011407;28;20699;-77
2021/12/19 04:06:24;;;;;;;20.35;13.18;;;5.70;99.90;;;;;;5019536;28;20238;-77
2021/12/19 04:09:09;;;;;;;19.45;12.25;;;5.70;99.90;;;;;;5015457;28;20694;-77
2021/12/19 04:11:56;;;;;;;22.00;12.48;;;5.60;99.90;;;;;;5009675;28;20339;-77
2021/12/19 04:14:41;;;;;;;23.80;13.63;;;5.60;99.90;;;;;;5019592;28;20202;-77
2021/12/19 04:17:29;;;;;;;23.27;13.45;;;5.70;99.90;;;;;;5018758;28;20198;-77
2021/12/19 04:20:15;;;;;;;23.52;13.68;;;5.60;99.90;;;;;;4997078;28;20807;-77
2021/12/19 04:23:01;;;;;;;23.85;13.63;;;5.60;99.90;;;;;;5011576;28;20198;-77
2021/12/19 04:25:46;;;;;;;29.27;15.80;;;5.50;99.90;;;;;;5013323;28;20198;-77
2021/12/19 04:28:32;;;;;;;27.02;15.55;;;5.50;99.90;;;;;;5014401;28;20702;-77
2021/12/19 04:31:18;;;;;;;25.10;14.25;;;5.40;99.90;;;;;;5010096;28;20657;-77
2021/12/19 04:34:05;;;;;;;31.17;15.50;;;5.40;99.90;;;;;;5012879;28;20566;-77
2021/12/19 04:36:57;;;;;;;25.77;14.95;;;5.40;99.90;;;;;;5005617;28;20202;-77
2021/12/19 04:39:54;;;;;;;32.22;15.98;;;5.50;99.90;;;;;;5015074;28;20225;-77
2021/12/19 04:52:09;;;;;;;30.50;15.63;;;5.50;99.90;;;;;;5000194;28;20214;-77
2021/12/19 04:55:14;;;;;;;37.28;17.15;;;5.50;99.90;;;;;;5020932;28;20577;-77
2021/12/19 04:58:14;;;;;;;32.33;15.48;;;5.40;99.90;;;;;;5014227;28;20205;-77
2021/12/19 05:01:12;;;;;;;33.85;15.00;;;5.30;99.90;;;;;;5016694;28;20265;-77
2021/12/19 05:04:09;;;;;;;27.85;14.27;;;5.40;99.90;;;;;;5015715;28;20242;-78
2021/12/19 05:16:07;;;;;;;41.47;17.33;;;5.40;99.90;;;;;;5012144;28;20194;-77
2021/12/19 05:19:00;;;;;;;33.53;16.63;;;5.30;99.90;;;;;;5010403;28;20202;-76
2021/12/19 05:21:46;;;;;;;38.97;15.70;;;5.30;99.90;;;;;;5006994;28;20221;-77
2021/12/19 05:24:48;;;;;;;27.23;14.25;;;5.30;99.90;;;;;;5019889;28;20216;-77
2021/12/19 05:27:34;;;;;;;32.92;15.90;;;5.30;99.90;;;;;;5012430;28;20613;-77
2021/12/19 05:30:20;;;;;;;28.70;14.98;;;5.20;99.90;;;;;;5006373;28;20217;-77
2021/12/19 05:33:07;;;;;;;32.17;16.55;;;5.30;99.90;;;;;;5012657;28;20782;-76
2021/12/19 05:36:09;;;;;;;38.50;16.15;;;5.40;99.90;;;;;;5022253;28;20333;-77
2021/12/19 05:45:13;;;;;;;34.10;15.77;;;5.40;99.90;;;;;;5015269;28;20210;-76
2021/12/19 05:47:59;;;;;;;41.17;15.00;;;5.40;99.90;;;;;;5015189;28;20207;-76
2021/12/19 05:50:45;;;;;;;38.10;17.10;;;5.40;99.90;;;;;;5020309;28;20699;-77
2021/12/19 05:53:30;;;;;;;35.20;16.52;;;5.40;99.90;;;;;;5018032;28;20209;-77
2021/12/19 05:56:16;;;;;;;30.58;14.95;;;5.40;99.90;;;;;;5016969;28;20557;-77
2021/12/19 05:59:03;;;;;;;37.33;17.60;;;5.40;99.90;;;;;;5012901;28;20583;-77
2021/12/19 06:01:49;;;;;;;36.28;15.85;;;5.40;99.90;;;;;;5018572;28;20234;-77
2021/12/19 06:04:35;;;;;;;32.05;14.63;;;5.40;99.90;;;;;;5017066;28;20362;-76
2021/12/19 06:07:20;;;;;;;34.25;15.45;;;5.50;99.90;;;;;;5018653;28;20221;-76
2021/12/19 06:10:07;;;;;;;40.53;17.58;;;5.40;99.90;;;;;;5018677;28;20803;-77
2021/12/19 06:12:52;;;;;;;31.00;16.60;;;5.50;99.90;;;;;;5023883;28;20206;-77
2021/12/19 06:15:39;;;;;;;41.20;18.58;;;5.40;99.90;;;;;;5029039;28;20189;-76
2021/12/19 06:18:25;;;;;;;35.88;17.35;;;5.50;99.90;;;;;;5019645;28;20565;-77
2021/12/19 06:21:10;;;;;;;37.30;17.25;;;5.50;99.90;;;;;;5018229;28;20576;-77
2021/12/19 06:23:56;;;;;;;35.47;17.58;;;5.50;99.90;;;;;;5016086;28;20209;-76
2021/12/19 06:26:42;;;;;;;39.65;18.90;;;5.50;99.90;;;;;;5013196;28;20241;-76
2021/12/19 06:29:28;;;;;;;32.67;17.17;;;5.60;99.90;;;;;;5003092;28;20223;-77
2021/12/19 06:32:16;;;;;;;31.52;17.17;;;5.60;99.90;;;;;;5021857;28;20687;-77
2021/12/19 06:35:06;;;;;;;28.75;15.55;;;5.60;99.90;;;;;;5007287;28;20256;-77
2021/12/19 06:37:52;;;;;;;30.63;15.88;;;5.60;99.90;;;;;;5018263;28;20702;-77
2021/12/19 06:40:38;;;;;;;38.17;16.75;;;5.70;99.90;;;;;;5011031;28;20312;-77
2021/12/19 06:43:25;;;;;;;31.00;15.65;;;5.70;99.90;;;;;;5017006;28;20206;-77
2021/12/19 06:46:10;;;;;;;30.63;16.17;;;5.80;99.90;;;;;;5017771;28;20209;-76
2021/12/19 06:48:57;;;;;;;35.83;18.20;;;5.70;99.90;;;;;;5008952;28;20217;-77
2021/12/19 06:51:43;;;;;;;33.22;17.15;;;5.80;99.90;;;;;;5019153;28;20298;-77
2021/12/19 06:54:29;;;;;;;28.70;15.48;;;5.80;99.90;;;;;;5019687;28;20202;-77
2021/12/19 06:57:15;;;;;;;32.20;16.65;;;5.80;99.90;;;;;;5008796;28;20206;-77
2021/12/19 07:00:04;;;;;;;30.27;16.58;;;5.90;99.90;;;;;;5014236;28;20734;-77
2021/12/19 07:02:52;;;;;;;27.85;15.38;;;5.80;99.90;;;;;;5012219;28;20758;-77
2021/12/19 07:05:39;;;;;;;37.95;17.20;;;5.80;99.90;;;;;;5014885;28;20222;-77
2021/12/19 07:08:25;;;;;;;35.00;17.60;;;5.80;99.90;;;;;;5019450;28;20238;-77
2021/12/19 07:11:10;;;;;;;35.17;17.15;;;5.80;99.90;;;;;;5009891;28;20223;-77
2021/12/19 07:13:55;;;;;;;38.67;17.23;;;5.80;99.90;;;;;;5021057;28;20707;-77
2021/12/19 07:16:41;;;;;;;34.35;16.27;;;5.80;99.90;;;;;;5010143;28;20201;-77
2021/12/19 07:19:27;;;;;;;30.50;15.85;;;5.70;99.90;;;;;;5017047;28;20201;-77
2021/12/19 07:22:14;;;;;;;31.35;16.58;;;5.70;99.90;;;;;;5017263;28;20221;-77
2021/12/19 07:25:00;;;;;;;28.35;15.23;;;5.70;99.90;;;;;;5008139;28;20224;-77
2021/12/19 07:27:46;;;;;;;36.42;17.75;;;5.70;99.90;;;;;;5010616;28;20202;-77
2021/12/19 07:30:35;;;;;;;30.42;17.30;;;5.70;99.90;;;;;;5021109;28;20260;-77
2021/12/19 07:33:21;;;;;;;29.52;15.60;;;5.70;99.90;;;;;;5019222;28;20206;-77
2021/12/19 07:36:06;;;;;;;28.55;16.58;;;5.80;99.90;;;;;;5012577;28;20197;-76
2021/12/19 07:38:59;;;;;;;29.90;16.65;;;5.80;99.90;;;;;;5015712;28;20209;-77
2021/12/19 07:41:45;;;;;;;34.35;16.63;;;5.80;99.90;;;;;;5025882;28;20269;-77
2021/12/19 07:44:30;;;;;;;39.40;17.20;;;5.80;99.90;;;;;;5018610;28;20309;-77
2021/12/19 07:47:16;;;;;;;31.52;16.85;;;5.80;99.90;;;;;;5009916;28;20289;-76
2021/12/19 07:50:01;;;;;;;34.03;17.52;;;5.90;99.90;;;;;;5018909;28;20222;-77
2021/12/19 07:52:47;;;;;;;30.05;16.83;;;5.80;99.90;;;;;;5017788;28;20201;-77
2021/12/19 07:55:35;;;;;;;32.20;16.10;;;5.80;99.90;;;;;;5015628;28;20197;-77
2021/12/19 07:58:21;;;;;;;26.73;14.75;;;5.90;99.90;;;;;;5017243;28;20222;-77
2021/12/19 08:01:07;;;;;;;28.73;15.55;;;5.90;99.90;;;;;;5053845;22;20235;-74
2021/12/19 08:03:52;;;;;;;28.10;15.93;;;5.90;99.90;;;;;;5051674;28;20212;-74
2021/12/19 08:06:38;;;;;;;34.08;17.65;;;5.90;99.90;;;;;;5047757;28;20367;-74
2021/12/19 08:09:35;;;;;;;37.92;19.08;;;5.90;99.90;;;;;;5050865;28;20624;-74
2021/12/19 08:12:21;;;;;;;28.85;17.75;;;6.00;99.90;;;;;;5030771;28;20213;-73
2021/12/19 08:15:09;;;;;;;31.48;17.08;;;6.00;99.90;;;;;;5035584;28;20561;-74
2021/12/19 08:17:55;;;;;;;26.30;16.02;;;6.10;99.90;;;;;;5034592;28;20224;-74
2021/12/19 08:20:41;;;;;;;35.40;17.70;;;6.00;99.90;;;;;;5022505;28;20225;-74
2021/12/19 08:23:26;;;;;;;25.67;16.95;;;6.00;99.90;;;;;;5036205;28;20411;-74
2021/12/19 08:26:13;;;;;;;29.77;17.80;;;6.10;99.90;;;;;;5023542;28;20693;-74
2021/12/19 08:29:00;;;;;;;30.10;18.73;;;6.10;99.90;;;;;;5040317;28;20209;-74
2021/12/19 08:31:45;;;;;;;27.85;18.30;;;6.00;99.90;;;;;;5040144;28;20241;-74
2021/12/19 08:34:31;;;;;;;30.48;17.83;;;6.10;99.90;;;;;;5028611;28;20574;-74
2021/12/19 08:37:17;;;;;;;28.05;18.25;;;5.90;99.90;;;;;;5035987;28;20205;-74
2021/12/19 08:40:03;;;;;;;29.23;18.77;;;6.00;99.90;;;;;;5033673;28;20200;-74
2021/12/19 08:42:49;;;;;;;31.00;19.20;;;6.00;99.90;;;;;;5018997;28;20241;-75
2021/12/19 08:45:36;;;;;;;36.08;20.02;;;6.10;99.90;;;;;;5031385;28;20222;-75
2021/12/19 08:48:22;;;;;;;29.73;18.95;;;6.10;99.90;;;;;;5035576;28;20252;-74
2021/12/19 08:51:08;;;;;;;27.73;17.08;;;6.20;99.90;;;;;;5035589;28;20248;-74
2021/12/19 08:53:54;;;;;;;25.95;16.13;;;6.20;99.90;;;;;;5028376;28;20666;-74
2021/12/19 08:56:40;;;;;;;33.78;18.83;;;6.20;99.90;;;;;;5037886;28;20196;-74
2021/12/19 08:59:26;;;;;;;30.55;18.92;;;6.10;99.90;;;;;;5038426;28;20600;-74
2021/12/19 09:02:13;;;;;;;26.27;17.42;;;6.10;99.90;;;;;;5032683;28;20299;-75
2021/12/19 09:04:58;;;;;;;48.25;27.88;;;6.00;99.90;;;;;;5036374;28;20225;-74
2021/12/19 09:07:44;;;;;;;48.90;30.10;;;6.00;99.90;;;;;;5038383;28;20208;-74
2021/12/19 09:10:29;;;;;;;64.72;34.90;;;6.00;99.90;;;;;;5027111;28;20726;-74
2021/12/19 09:13:15;;;;;;;37.22;21.35;;;6.00;99.90;;;;;;5033849;28;20201;-74
2021/12/19 09:16:01;;;;;;;35.22;22.10;;;6.00;99.90;;;;;;5031722;28;20209;-75
2021/12/19 09:18:48;;;;;;;28.92;18.35;;;5.90;99.90;;;;;;5028256;28;20291;-74
2021/12/19 09:21:34;;;;;;;29.92;18.38;;;6.00;99.90;;;;;;5038384;28;20225;-74
2021/12/19 09:24:20;;;;;;;27.58;18.27;;;6.00;99.90;;;;;;5036889;28;20312;-73
2021/12/19 09:27:07;;;;;;;27.73;16.98;;;6.10;99.90;;;;;;5040534;28;20320;-74
2021/12/19 09:29:53;;;;;;;27.45;17.33;;;6.20;99.90;;;;;;5041289;28;20220;-74
2021/12/19 09:32:40;;;;;;;28.50;18.58;;;6.20;99.90;;;;;;5035589;28;20590;-74
2021/12/19 09:35:28;;;;;;;26.13;16.05;;;6.30;99.90;;;;;;5032851;28;20198;-74
2021/12/19 09:38:15;;;;;;;30.30;17.40;;;6.30;99.90;;;;;;5040667;28;20571;-73
2021/12/19 09:41:12;;;;;;;27.80;18.05;;;6.40;99.90;;;;;;5046160;28;20221;-73
2021/12/19 09:44:02;;;;;;;29.33;18.60;;;6.40;99.90;;;;;;5045158;28;20201;-74
2021/12/19 09:46:49;;;;;;;32.70;18.73;;;6.40;99.90;;;;;;5043480;28;20225;-74
2021/12/19 09:49:35;;;;;;;28.13;18.90;;;6.40;99.90;;;;;;5040500;28;20209;-74
2021/12/19 09:52:22;;;;;;;32.05;20.63;;;6.40;99.90;;;;;;5029635;28;20313;-73
2021/12/19 09:55:09;;;;;;;32.17;20.73;;;6.30;99.90;;;;;;5031067;28;20213;-73
2021/12/19 09:57:54;;;;;;;38.17;21.73;;;6.30;99.90;;;;;;5027959;28;20317;-74
2021/12/19 10:00:40;;;;;;;41.22;24.52;;;6.30;99.90;;;;;;5030390;28;20237;-74
2021/12/19 10:03:26;;;;;;;31.30;20.95;;;6.40;99.90;;;;;;5035648;28;20217;-74
2021/12/19 10:06:17;;;;;;;36.03;23.55;;;6.40;99.90;;;;;;5041236;28;20756;-74
2021/12/19 10:09:12;;;;;;;32.13;20.55;;;6.40;99.90;;;;;;5033457;28;20295;-74
2021/12/19 10:12:10;;;;;;;35.17;21.08;;;6.30;99.90;;;;;;5036668;28;20222;-74
2021/12/19 10:14:56;;;;;;;36.40;24.55;;;6.30;99.90;;;;;;5031548;28;20200;-73
2021/12/19 10:17:42;;;;;;;32.90;21.42;;;6.40;99.90;;;;;;5045505;28;20263;-75
2021/12/19 10:20:27;;;;;;;34.47;22.00;;;6.40;99.90;;;;;;5032954;28;20585;-74
2021/12/19 10:23:15;;;;;;;31.52;20.83;;;6.50;99.90;;;;;;5035883;28;20232;-74
2021/12/19 10:26:06;;;;;;;31.30;20.50;;;6.40;99.90;;;;;;5034737;28;20221;-74
2021/12/19 10:28:53;;;;;;;37.17;23.15;;;6.30;99.90;;;;;;5034378;28;20194;-74
2021/12/19 10:31:39;;;;;;;30.20;21.27;;;6.30;99.90;;;;;;5043617;28;20230;-74
2021/12/19 10:34:25;;;;;;;31.73;21.13;;;6.20;99.90;;;;;;5034462;28;20197;-74
2021/12/19 10:37:11;;;;;;;30.77;19.17;;;6.20;99.90;;;;;;5031467;28;20265;-74
2021/12/19 10:40:01;;;;;;;31.00;20.13;;;6.30;99.90;;;;;;5030572;28;20216;-73
2021/12/19 10:42:53;;;;;;;28.67;20.35;;;6.40;99.90;;;;;;5041189;28;20205;-74
2021/12/19 10:45:46;;;;;;;31.48;22.27;;;6.40;99.90;;;;;;5038667;28;20221;-74
2021/12/19 10:48:34;;;;;;;33.13;21.80;;;6.40;99.90;;;;;;5043916;28;20197;-73
2021/12/19 10:51:20;;;;;;;31.63;22.08;;;6.30;99.90;;;;;;5039489;28;20260;-74
2021/12/19 10:54:09;;;;;;;32.70;22.55;;;6.30;99.90;;;;;;5019180;28;20212;-74
2021/12/19 10:57:07;;;;;;;32.85;21.50;;;6.30;99.90;;;;;;5037053;28;20565;-74
2021/12/19 10:59:54;;;;;;;35.35;23.20;;;6.30;99.90;;;;;;5033542;28;20218;-74
2021/12/19 11:02:43;;;;;;;33.90;25.27;;;6.30;99.90;;;;;;5034348;28;20213;-73
2021/12/19 11:05:37;;;;;;;31.23;23.33;;;6.40;99.90;;;;;;5039633;28;20316;-74
2021/12/19 11:08:35;;;;;;;33.80;23.05;;;6.30;99.90;;;;;;5037102;28;20292;-74
2021/12/19 11:11:39;;;;;;;31.33;22.50;;;6.30;99.90;;;;;;5014235;28;20294;-74
2021/12/19 11:14:28;;;;;;;29.58;21.98;;;6.40;99.90;;;;;;5032974;28;20271;-74
2021/12/19 11:17:18;;;;;;;31.20;23.80;;;6.30;99.90;;;;;;5030836;28;20666;-74
2021/12/19 11:20:05;;;;;;;28.60;21.05;;;6.40;99.90;;;;;;5032946;28;20193;-74
2021/12/19 11:22:50;;;;;;;28.95;22.00;;;6.40;99.90;;;;;;5036014;28;20197;-74
2021/12/19 11:25:37;;;;;;;32.55;22.88;;;6.40;99.90;;;;;;5036740;28;20221;-75
2021/12/19 11:28:23;;;;;;;31.65;22.00;;;6.40;99.90;;;;;;5037807;28;20707;-74
2021/12/19 11:31:11;;;;;;;33.42;22.92;;;6.30;99.90;;;;;;5017881;28;20225;-74
2021/12/19 11:34:21;;;;;;;32.85;22.63;;;6.30;99.90;;;;;;5043382;28;20209;-73
2021/12/19 11:37:12;;;;;;;30.60;21.58;;;6.30;99.90;;;;;;5026544;28;20202;-73
2021/12/19 11:39:58;;;;;;;25.42;18.95;;;6.40;99.90;;;;;;5037983;28;20197;-73
2021/12/19 11:42:44;;;;;;;29.05;21.23;;;6.40;99.90;;;;;;5036451;28;20302;-73
2021/12/19 11:45:33;;;;;;;33.13;22.00;;;6.50;99.90;;;;;;5027016;28;20205;-73
2021/12/19 11:48:24;;;;;;;29.45;21.48;;;6.60;99.90;;;;;;5044916;28;20279;-73
2021/12/19 11:51:19;;;;;;;27.38;19.70;;;6.60;99.90;;;;;;5052361;28;20652;-73
2021/12/19 11:54:13;;;;;;;28.08;19.55;;;6.60;99.90;;;;;;5024635;28;20594;-73
2021/12/19 11:57:09;;;;;;;28.63;21.25;;;6.60;99.90;;;;;;5042543;28;20681;-73
2021/12/19 12:00:26;;;;;;;24.48;18.67;;;6.60;99.90;;;;;;5040435;28;20209;-74
2021/12/19 12:03:33;;;;;;;28.98;21.95;;;6.70;99.90;;;;;;5024699;28;20204;-73
2021/12/19 12:06:41;;;;;;;25.60;20.35;;;6.60;99.90;;;;;;5030891;28;20209;-74
2021/12/19 12:09:30;;;;;;;25.25;19.20;;;6.60;99.90;;;;;;5024461;28;20202;-71
2021/12/19 12:12:22;;;;;;;25.67;17.88;;;6.60;99.90;;;;;;5019521;28;20202;-70
2021/12/19 12:15:09;;;;;;;27.92;19.70;;;6.60;99.90;;;;;;5028576;28;20202;-73
2021/12/19 12:17:58;;;;;;;22.35;18.60;;;6.60;99.90;;;;;;5021951;28;20204;-73
2021/12/19 12:20:44;;;;;;;27.55;19.00;;;6.50;99.90;;;;;;5025508;28;20290;-73
2021/12/19 12:23:31;;;;;;;25.90;18.65;;;6.40;99.90;;;;;;5020184;28;20668;-73
2021/12/19 12:26:24;;;;;;;28.52;20.38;;;6.30;99.90;;;;;;5032048;28;20213;-73
2021/12/19 12:29:10;;;;;;;26.02;19.20;;;6.30;99.90;;;;;;5024413;28;20205;-73
2021/12/19 12:31:56;;;;;;;26.67;19.42;;;6.20;99.90;;;;;;5032307;28;20382;-73
2021/12/19 12:34:42;;;;;;;27.17;18.10;;;6.20;99.90;;;;;;5045488;28;20201;-73
2021/12/19 12:37:28;;;;;;;26.13;18.08;;;6.20;99.90;;;;;;5037867;28;20675;-73
2021/12/19 12:40:29;;;;;;;26.20;18.08;;;6.10;99.90;;;;;;5025045;28;20233;-73
2021/12/19 12:43:17;;;;;;;23.90;17.90;;;6.10;99.90;;;;;;5035428;28;20343;-73
2021/12/19 12:46:16;;;;;;;34.58;19.00;;;6.10;99.90;;;;;;5039905;28;20664;-73
2021/12/19 12:49:03;;;;;;;26.00;18.30;;;6.10;99.90;;;;;;5038187;28;20224;-73
2021/12/19 12:51:59;;;;;;;25.60;16.48;;;6.00;99.90;;;;;;5024792;28;20281;-73
2021/12/19 12:54:45;;;;;;;21.23;16.80;;;6.00;99.90;;;;;;5030281;28;20264;-74
2021/12/19 12:57:35;;;;;;;26.17;17.90;;;6.10;99.90;;;;;;5022944;28;20201;-73
2021/12/19 13:00:22;;;;;;;22.48;15.75;;;6.20;99.90;;;;;;5044702;28;20352;-73
2021/12/19 13:03:28;;;;;;;22.40;17.25;;;6.20;99.90;;;;;;5023073;28;20209;-73
2021/12/19 13:06:14;;;;;;;24.92;18.13;;;6.20;99.90;;;;;;5032848;28;20673;-73
2021/12/19 13:09:12;;;;;;;24.02;17.55;;;6.10;99.90;;;;;;5039877;28;20196;-73
2021/12/19 13:12:08;;;;;;;29.08;18.98;;;6.10;99.90;;;;;;5038623;28;20275;-73
2021/12/19 13:14:57;;;;;;;22.70;16.58;;;6.20;99.90;;;;;;5043459;28;20232;-73
2021/12/19 13:17:44;;;;;;;25.05;16.70;;;6.20;99.90;;;;;;5043028;28;20324;-73
2021/12/19 13:20:33;;;;;;;24.83;17.17;;;6.30;99.90;;;;;;5020287;28;20230;-73
2021/12/19 13:23:19;;;;;;;22.92;17.33;;;6.30;99.90;;;;;;5035012;28;20311;-72
2021/12/19 13:26:04;;;;;;;26.67;18.20;;;6.30;99.90;;;;;;5043545;28;20678;-73
2021/12/19 13:28:50;;;;;;;24.45;16.80;;;6.30;99.90;;;;;;5050743;28;20304;-73
2021/12/19 13:31:37;;;;;;;21.95;17.25;;;6.30;99.90;;;;;;5027134;28;20308;-73
2021/12/19 13:34:23;;;;;;;27.50;16.95;;;6.30;99.90;;;;;;5044917;28;20241;-74
2021/12/19 13:37:08;;;;;;;28.20;18.15;;;6.30;99.90;;;;;;5015408;28;20217;-74
2021/12/19 13:40:04;;;;;;;22.08;17.45;;;6.30;99.90;;;;;;5015403;28;20703;-73
2021/12/19 13:42:53;;;;;;;27.50;18.58;;;6.30;99.90;;;;;;5031788;28;20204;-74
2021/12/19 13:45:47;;;;;;;24.02;17.67;;;6.30;99.90;;;;;;5035113;28;20265;-73
2021/12/19 13:48:36;;;;;;;23.98;16.98;;;6.40;99.90;;;;;;5035370;28;20217;-74
2021/12/19 13:51:24;;;;;;;23.00;16.85;;;6.40;99.90;;;;;;5023865;28;20222;-73
2021/12/19 13:54:11;;;;;;;22.02;17.23;;;6.30;99.90;;;;;;5014744;28;20207;-73
2021/12/19 13:56:56;;;;;;;27.17;17.40;;;6.30;99.90;;;;;;5034469;28;20675;-73
2021/12/19 13:59:42;;;;;;;23.33;17.48;;;6.30;99.90;;;;;;5046000;28;20201;-73
2021/12/19 14:02:28;;;;;;;22.70;16.83;;;6.30;99.90;;;;;;5040481;22;20229;-73
2021/12/19 14:05:34;;;;;;;21.77;15.60;;;6.30;99.90;;;;;;5034344;28;20209;-73
2021/12/19 14:08:24;;;;;;;22.17;15.50;;;6.40;99.90;;;;;;5034446;28;20221;-73
2021/12/19 14:11:16;;;;;;;21.67;15.55;;;6.40;99.90;;;;;;5024162;28;20250;-73
2021/12/19 14:14:07;;;;;;;25.75;16.10;;;6.50;99.90;;;;;;5014451;28;20726;-73
2021/12/19 14:16:59;;;;;;;23.92;15.90;;;6.50;99.90;;;;;;5014695;28;20694;-73
2021/12/19 14:19:49;;;;;;;22.88;15.20;;;6.50;99.90;;;;;;5012580;28;20206;-73
2021/12/19 14:22:37;;;;;;;27.03;17.93;;;6.50;99.90;;;;;;4994389;28;20218;-73
2021/12/19 14:25:27;;;;;;;24.13;16.40;;;6.50;99.90;;;;;;4994936;28;20442;-73
2021/12/19 14:28:22;;;;;;;25.90;17.60;;;6.50;99.90;;;;;;5021218;28;20337;-73
2021/12/19 14:31:08;;;;;;;23.02;15.70;;;6.60;99.90;;;;;;4995079;28;20246;-73
2021/12/19 14:33:55;;;;;;;28.52;15.00;;;6.60;99.90;;;;;;5006797;28;20617;-74
2021/12/19 14:36:41;;;;;;;19.75;14.07;;;6.50;99.90;;;;;;5014777;28;20208;-74
2021/12/19 14:39:29;;;;;;;21.15;14.95;;;6.50;99.90;;;;;;5012632;28;20333;-73
2021/12/19 14:42:18;;;;;;;23.45;15.77;;;6.50;99.90;;;;;;4995243;28;20273;-73
2021/12/19 14:45:07;;;;;;;24.13;15.73;;;6.50;99.90;;;;;;4995004;28;20199;-73
2021/12/19 14:48:00;;;;;;;22.33;14.32;;;6.50;99.90;;;;;;4995448;28;20245;-73
2021/12/19 14:50:49;;;;;;;20.10;14.50;;;6.40;99.90;;;;;;5007250;28;20695;-72
2021/12/19 14:53:37;;;;;;;20.80;13.93;;;6.30;99.90;;;;;;5014784;28;20218;-72
2021/12/19 14:56:26;;;;;;;20.08;14.25;;;6.30;99.90;;;;;;5019549;28;20206;-72
2021/12/19 14:59:16;;;;;;;21.88;14.15;;;6.40;99.90;;;;;;5015087;28;20278;-72
2021/12/19 15:02:05;;;;;;;21.65;15.25;;;6.40;99.90;;;;;;4994843;28;20316;-72
2021/12/19 15:04:51;;;;;;;17.48;13.57;;;6.40;99.90;;;;;;5011327;28;20269;-72
2021/12/19 15:07:42;;;;;;;21.83;14.52;;;6.50;99.90;;;;;;5014029;28;20221;-72
2021/12/19 15:10:28;;;;;;;19.25;14.07;;;6.50;99.90;;;;;;5000546;28;20572;-72
2021/12/19 15:13:15;;;;;;;22.88;15.15;;;6.40;99.90;;;;;;4994449;28;20214;-73